createdAt,value
2022-11-13T00:04:52.369Z,17.67
2022-11-13T00:09:55.083Z,16.80
2022-11-13T00:14:58.963Z,19.20
2022-11-13T00:20:05.329Z,19.02
2022-11-13T00:25:08.178Z,25.27
2022-11-13T00:30:18.909Z,23.45
2022-11-13T00:35:21.817Z,19.65
2022-11-13T00:40:24.265Z,22.08
2022-11-13T00:45:30.969Z,18.80
2022-11-13T00:50:33.276Z,14.00
2022-11-13T00:55:35.603Z,20.90
2022-11-13T01:00:39.990Z,21.02
2022-11-13T01:05:44.502Z,17.92
2022-11-13T01:10:53.454Z,16.60
2022-11-13T01:15:57.985Z,16.17
2022-11-13T01:21:04.492Z,14.23
2022-11-13T01:26:10.722Z,13.73
2022-11-13T01:31:17.237Z,16.90
2022-11-13T01:36:23.713Z,19.80
2022-11-13T01:41:27.907Z,19.63
2022-11-13T01:46:33.992Z,19.25
2022-11-13T01:51:40.059Z,14.65
2022-11-13T01:56:42.695Z,17.13
2022-11-13T02:01:46.597Z,14.77
2022-11-13T02:06:52.102Z,21.98
2022-11-13T02:11:55.042Z,26.88
2022-11-13T02:17:02.038Z,18.65
2022-11-13T02:22:11.715Z,14.05
2022-11-13T02:27:21.360Z,17.02
2022-11-13T02:32:23.713Z,12.18
2022-11-13T02:37:25.969Z,14.75
2022-11-13T02:42:29.904Z,13.70
2022-11-13T02:47:32.727Z,15.80
2022-11-13T02:52:35.123Z,15.38
2022-11-13T02:57:39.116Z,16.95
2022-11-13T03:02:41.504Z,12.98
2022-11-13T03:07:43.756Z,13.57
2022-11-13T03:12:47.546Z,18.05
2022-11-13T03:17:49.933Z,18.85
2022-11-13T03:22:52.453Z,18.05
2022-11-13T03:27:56.156Z,20.42
2022-11-13T03:32:58.661Z,23.25
2022-11-13T03:38:00.936Z,30.73
2022-11-13T03:43:06.117Z,27.15
2022-11-13T03:48:08.725Z,27.70
2022-11-13T03:53:11.433Z,33.97
2022-11-13T03:58:15.885Z,34.97
2022-11-13T04:03:18.145Z,36.55
2022-11-13T04:08:20.389Z,16.90
2022-11-13T04:13:24.041Z,15.82
2022-11-13T04:18:26.746Z,19.55
2022-11-13T04:23:29.807Z,16.48
2022-11-13T04:28:33.509Z,14.50
2022-11-13T04:33:35.746Z,16.60
2022-11-13T04:38:38.075Z,16.88
2022-11-13T04:43:41.817Z,17.02
2022-11-13T04:48:44.042Z,11.63
2022-11-13T04:53:46.453Z,13.02
2022-11-13T04:58:50.618Z,14.32
2022-11-13T05:03:56.097Z,15.48
2022-11-13T05:08:58.329Z,14.52
2022-11-13T05:14:03.577Z,15.50
2022-11-13T05:19:06.446Z,12.45
2022-11-13T05:24:11.080Z,13.98
2022-11-13T05:29:14.889Z,11.00
2022-11-13T05:34:17.487Z,14.35
2022-11-13T05:39:19.870Z,11.68
2022-11-13T05:44:23.632Z,10.25
2022-11-13T05:49:25.891Z,13.20
2022-11-13T05:54:28.298Z,12.27
2022-11-13T05:59:32.047Z,11.07
2022-11-13T06:04:34.643Z,14.45
2022-11-13T06:09:37.551Z,12.90
2022-11-13T06:14:41.418Z,10.65
2022-11-13T06:19:43.694Z,10.02
2022-11-13T06:24:45.985Z,10.30
2022-11-13T06:29:49.967Z,12.73
2022-11-13T06:34:52.192Z,11.60
2022-11-13T06:39:54.635Z,12.15
2022-11-13T06:44:58.506Z,16.65
2022-11-13T06:50:00.920Z,20.00
2022-11-13T06:55:03.446Z,17.90
2022-11-13T07:00:09.010Z,11.10
2022-11-13T07:05:11.583Z,12.18
2022-11-13T07:10:13.991Z,10.77
2022-11-13T07:15:17.990Z,12.85
2022-11-13T07:20:22.223Z,12.05
2022-11-13T07:25:25.234Z,11.75
2022-11-13T07:30:29.112Z,11.45
2022-11-13T07:35:31.633Z,14.60
2022-11-13T07:40:33.983Z,13.20
2022-11-13T07:45:37.955Z,11.55
2022-11-13T07:50:40.318Z,9.88
2022-11-13T07:55:42.903Z,8.65
2022-11-13T08:00:46.761Z,13.32
2022-11-13T08:05:49.081Z,10.75
2022-11-13T08:10:51.400Z,11.57
2022-11-13T08:15:55.168Z,16.42
2022-11-13T08:21:01.482Z,10.90
2022-11-13T08:26:07.019Z,8.93
2022-11-13T08:31:13.784Z,6.70
2022-11-13T08:36:16.223Z,10.35
2022-11-13T08:41:18.603Z,7.47
2022-11-13T08:46:22.414Z,6.43
2022-11-13T08:51:24.862Z,8.10
2022-11-13T08:56:27.220Z,7.43
2022-11-13T09:01:59.260Z,7.90
2022-11-13T09:06:59.957Z,10.18
2022-11-13T09:12:02.372Z,10.30
2022-11-13T09:17:06.199Z,12.02
2022-11-13T09:22:08.826Z,10.77
2022-11-13T09:27:12.451Z,9.07
2022-11-13T09:32:16.745Z,11.02
2022-11-13T09:37:19.141Z,12.07
2022-11-13T09:42:25.249Z,10.32
2022-11-13T09:47:33.604Z,12.40
2022-11-13T09:52:39.778Z,11.20
2022-11-13T09:57:49.045Z,9.57
2022-11-13T10:03:08.131Z,9.93
2022-11-13T10:08:16.585Z,13.65
2022-11-13T10:13:23.089Z,12.40
2022-11-13T10:18:33.869Z,10.60
2022-11-13T10:23:38.689Z,11.45
2022-11-13T10:28:50.457Z,8.90
2022-11-13T10:33:57.593Z,8.10
2022-11-13T10:39:03.870Z,9.40
2022-11-13T10:44:07.585Z,11.05
2022-11-13T10:49:19.495Z,9.50
2022-11-13T10:54:24.549Z,7.75
2022-11-13T10:59:27.492Z,8.98
2022-11-13T11:04:31.259Z,8.38
2022-11-13T11:09:37.619Z,8.68
2022-11-13T11:14:44.684Z,9.93
2022-11-13T11:19:55.429Z,7.47
2022-11-13T11:25:04.173Z,10.15
2022-11-13T11:30:13.981Z,10.82
2022-11-13T11:35:21.605Z,9.07
2022-11-13T11:40:31.105Z,12.30
2022-11-13T11:45:36.840Z,8.63
2022-11-13T11:50:48.898Z,7.50
2022-11-13T11:56:21.286Z,9.70
2022-11-13T12:01:36.167Z,9.35
2022-11-13T12:06:51.685Z,11.90
2022-11-13T12:12:02.890Z,9.30
2022-11-13T12:17:25.618Z,10.50
2022-11-13T12:22:39.976Z,9.00
2022-11-13T12:27:48.024Z,8.00
2022-11-13T12:33:11.879Z,8.80
2022-11-13T12:38:26.006Z,10.38
2022-11-13T12:43:48.314Z,10.60
2022-11-13T12:48:50.626Z,8.00
2022-11-13T12:53:55.679Z,8.82
2022-11-13T12:59:30.338Z,8.00
2022-11-13T13:04:49.886Z,10.30
2022-11-13T13:10:10.542Z,9.20
2022-11-13T13:15:27.989Z,13.07
2022-11-13T13:20:34.156Z,8.57
2022-11-13T13:25:38.847Z,7.05
2022-11-13T13:30:53.340Z,8.95
2022-11-13T13:36:03.658Z,12.27
2022-11-13T13:41:20.084Z,10.77
2022-11-13T13:46:25.462Z,9.47
2022-11-13T13:51:31.820Z,11.20
2022-11-13T13:56:41.514Z,11.53
2022-11-13T14:01:54.465Z,10.35
2022-11-13T14:06:59.222Z,11.82
2022-11-13T14:12:09.580Z,9.10
2022-11-13T14:17:21.299Z,9.52
2022-11-13T14:22:23.944Z,10.52
2022-11-13T14:27:28.823Z,12.85
2022-11-13T14:32:34.158Z,10.57
2022-11-13T14:37:39.563Z,12.57
2022-11-13T14:42:48.320Z,9.82
2022-11-13T14:47:59.975Z,10.93
2022-11-13T14:53:04.903Z,9.02
2022-11-13T14:58:13.118Z,11.23
2022-11-13T15:03:15.480Z,10.43
2022-11-13T15:08:18.373Z,13.13
2022-11-13T15:13:22.302Z,10.80
2022-11-13T15:18:26.449Z,11.90
2022-11-13T15:23:30.474Z,9.75
2022-11-13T15:28:34.961Z,13.30
2022-11-13T15:33:37.517Z,13.07
2022-11-13T15:38:40.563Z,13.57
2022-11-13T15:43:46.777Z,12.70
2022-11-13T15:48:50.762Z,12.77
2022-11-13T15:53:57.250Z,14.65
2022-11-13T15:59:01.013Z,12.13
2022-11-13T16:04:03.842Z,12.50
2022-11-13T16:09:09.939Z,12.00
2022-11-13T16:14:13.748Z,11.82
2022-11-13T16:19:22.731Z,12.18
2022-11-13T16:24:25.131Z,13.45
2022-11-13T16:29:29.184Z,12.93
2022-11-13T16:34:31.544Z,11.50
2022-11-13T16:39:33.863Z,13.02
2022-11-13T16:44:38.102Z,15.38
2022-11-13T16:49:40.447Z,14.60
2022-11-13T16:54:42.900Z,17.48
2022-11-13T16:59:46.862Z,16.95
2022-11-13T17:04:49.155Z,19.23
2022-11-13T17:10:10.083Z,19.83
2022-11-13T17:15:15.384Z,19.27
2022-11-13T17:20:18.251Z,22.77
2022-11-13T17:25:20.582Z,22.23
2022-11-13T17:30:24.420Z,23.38
2022-11-13T17:35:26.753Z,24.02
2022-11-13T17:40:29.274Z,20.13
2022-11-13T17:45:36.496Z,24.95
2022-11-13T17:50:38.846Z,24.73
2022-11-13T17:55:41.176Z,30.30
2022-11-13T18:00:45.019Z,28.20
2022-11-13T18:05:47.812Z,27.88
2022-11-13T18:10:50.153Z,35.95
2022-11-13T18:15:53.970Z,31.58
2022-11-13T18:20:57.543Z,28.80
2022-11-13T18:26:08.238Z,33.40
2022-11-13T18:31:14.437Z,33.13
2022-11-13T18:36:17.265Z,30.92
2022-11-13T18:41:21.731Z,33.53
2022-11-13T18:46:25.680Z,35.88
2022-11-13T18:51:29.137Z,37.30
2022-11-13T18:56:32.353Z,50.72
2022-11-13T19:01:37.384Z,45.47
2022-11-13T19:06:39.919Z,43.35
2022-11-13T19:11:43.680Z,34.53
2022-11-13T19:17:37.471Z,43.42
2022-11-13T19:22:16.563Z,44.00
2022-11-13T19:27:19.606Z,37.78
2022-11-13T19:32:23.515Z,44.30
2022-11-13T19:37:26.202Z,40.45
2022-11-13T19:42:29.855Z,33.58
2022-11-13T19:47:33.931Z,38.25
2022-11-13T19:52:36.312Z,39.33
2022-11-13T19:57:44.892Z,35.13
2022-11-13T20:02:50.296Z,37.63
2022-11-13T20:07:52.900Z,32.42
2022-11-13T20:12:58.868Z,34.38
2022-11-13T20:18:06.882Z,37.17
2022-11-13T20:23:16.131Z,39.30
2022-11-13T20:28:19.197Z,36.25
2022-11-13T20:33:31.332Z,30.80
2022-11-13T20:38:34.390Z,30.60
2022-11-13T20:43:38.352Z,34.00
2022-11-13T20:48:44.004Z,28.70
2022-11-13T20:53:46.909Z,32.42
2022-11-13T20:58:50.357Z,30.30
2022-11-13T21:04:01.943Z,33.33
2022-11-13T21:09:21.534Z,28.05
2022-11-13T21:14:50.663Z,36.10
2022-11-13T21:19:57.890Z,30.38
2022-11-13T21:25:00.811Z,27.90
2022-11-13T21:30:34.478Z,38.42
2022-11-13T21:35:36.592Z,36.90
2022-11-13T21:40:45.687Z,33.05
2022-11-13T21:45:58.492Z,32.58
2022-11-13T21:51:08.463Z,26.33
2022-11-13T21:56:15.790Z,29.63
2022-11-13T22:01:24.120Z,25.88
2022-11-13T22:06:35.500Z,23.38
2022-11-13T22:11:41.047Z,24.90
2022-11-13T22:16:51.953Z,31.77
2022-11-13T22:22:04.146Z,32.63
2022-11-13T22:27:06.832Z,28.15
2022-11-13T22:32:14.979Z,32.30
2022-11-13T22:37:30.357Z,28.98
2022-11-13T22:42:32.955Z,34.28
2022-11-13T22:47:38.069Z,38.70
2022-11-13T22:52:42.099Z,38.55
2022-11-13T22:57:44.474Z,39.35
2022-11-13T23:02:47.548Z,39.88
2022-11-13T23:07:52.863Z,35.17
2022-11-13T23:12:58.386Z,33.90
2022-11-13T23:18:03.518Z,33.67
2022-11-13T23:23:09.942Z,36.08
2022-11-13T23:28:12.562Z,38.45
2022-11-13T23:33:16.782Z,32.22
2022-11-13T23:38:20.635Z,36.92
2022-11-13T23:43:53.901Z,39.30
2022-11-13T23:48:51.469Z,34.47
2022-11-13T23:53:55.433Z,37.30
2022-11-13T23:58:58.279Z,36.60
